createdAt,value
2023-03-20T00:04:56.948Z,93.5
2023-03-20T00:10:03.528Z,93.5
2023-03-20T00:15:10.071Z,94.5
2023-03-20T00:20:16.651Z,94.5
2023-03-20T00:25:23.214Z,95
2023-03-20T00:30:29.792Z,95.5
2023-03-20T00:35:36.356Z,96
2023-03-20T00:40:42.948Z,96
2023-03-20T00:45:49.500Z,96
2023-03-20T00:50:55.328Z,96.5
2023-03-20T00:56:01.902Z,97
2023-03-20T01:01:08.482Z,97.5
2023-03-20T01:06:15.078Z,98
2023-03-20T01:11:21.610Z,98
2023-03-20T01:16:28.189Z,98
2023-03-20T01:21:34.757Z,98.5
2023-03-20T01:26:41.339Z,99
2023-03-20T01:31:47.888Z,99.5
2023-03-20T01:36:54.474Z,99
2023-03-20T01:42:01.054Z,99
2023-03-20T01:47:07.650Z,99
2023-03-20T01:52:14.217Z,99.5
2023-03-20T01:57:20.077Z,99.5
2023-03-20T02:02:26.683Z,99.5
2023-03-20T02:07:33.217Z,99.5
2023-03-20T02:12:39.788Z,99.5
2023-03-20T02:17:46.348Z,99.5
2023-03-20T02:22:52.959Z,99.5
2023-03-20T02:27:59.499Z,99.5
2023-03-20T02:33:06.075Z,99.5
2023-03-20T02:38:12.638Z,99.5
2023-03-20T02:43:19.202Z,99.5
2023-03-20T02:53:32.358Z,99.5
2023-03-20T02:58:38.922Z,99.5
2023-03-20T03:03:44.757Z,99.5
2023-03-20T03:08:51.341Z,99.5
2023-03-20T03:13:57.900Z,99.5
2023-03-20T03:19:04.483Z,99.5
2023-03-20T03:24:11.042Z,99.5
2023-03-20T03:29:17.657Z,99.5
2023-03-20T03:34:24.234Z,99.5
2023-03-20T03:39:30.761Z,99.5
2023-03-20T03:44:37.329Z,99.5
2023-03-20T03:49:43.930Z,99.5
2023-03-20T03:54:50.490Z,99.5
2023-03-20T03:59:57.056Z,99.5
2023-03-20T04:05:03.627Z,99.5
2023-03-20T04:10:09.453Z,99.5
2023-03-20T04:15:16.044Z,99.5
2023-03-20T04:20:22.599Z,99.5
2023-03-20T04:25:29.175Z,99.5
2023-03-20T04:30:35.764Z,99
2023-03-20T04:35:42.305Z,98.5
2023-03-20T04:40:48.892Z,98.5
2023-03-20T04:45:55.450Z,99
2023-03-20T04:51:02.026Z,99
2023-03-20T04:56:08.630Z,99
2023-03-20T05:01:15.157Z,99
2023-03-20T05:06:21.712Z,99.5
2023-03-20T05:11:28.306Z,99.5
2023-03-20T05:16:34.130Z,99.5
2023-03-20T05:21:40.720Z,99.5
2023-03-20T05:26:47.267Z,99.5
2023-03-20T05:31:53.843Z,99.5
2023-03-20T05:37:00.407Z,99.5
2023-03-20T05:42:06.980Z,99.5
2023-03-20T05:47:13.551Z,99.5
2023-03-20T05:52:20.119Z,99.5
2023-03-20T05:57:26.682Z,99.5
2023-03-20T06:02:33.261Z,99.5
2023-03-20T06:07:39.852Z,99.5
2023-03-20T06:12:46.407Z,99.5
2023-03-20T06:17:53.017Z,99.5
2023-03-20T06:22:58.796Z,99.5
2023-03-20T06:28:05.399Z,99.5
2023-03-20T06:33:11.961Z,99.5
2023-03-20T06:38:18.525Z,99.5
2023-03-20T06:43:25.089Z,99.5
2023-03-20T06:48:31.661Z,99.5
2023-03-20T06:53:38.280Z,99.5
2023-03-20T06:58:44.805Z,99.5
2023-03-20T07:03:51.391Z,99.5
2023-03-20T07:08:57.958Z,99.5
2023-03-20T07:14:04.527Z,99.5
2023-03-20T07:24:17.671Z,99.5
2023-03-20T07:29:23.516Z,99.5
2023-03-20T07:34:30.110Z,99.5
2023-03-20T07:39:36.635Z,99.5
2023-03-20T07:44:43.226Z,99.5
2023-03-20T07:49:49.891Z,99.5
2023-03-20T07:54:56.357Z,99.5
2023-03-20T08:00:03.075Z,99.5
2023-03-20T08:05:09.557Z,99
2023-03-20T08:10:16.102Z,92.5
2023-03-20T08:15:22.758Z,92
2023-03-20T08:20:29.237Z,88.5
2023-03-20T08:30:42.378Z,88.5
2023-03-20T08:35:48.322Z,89.5
2023-03-20T08:46:01.409Z,88.5
2023-03-20T08:51:07.243Z,85
2023-03-20T09:01:20.411Z,86
2023-03-20T09:06:27.016Z,85
2023-03-20T09:11:32.867Z,83.5
2023-03-20T09:16:39.541Z,82.5
2023-03-20T09:21:45.915Z,82.5
2023-03-20T09:26:52.509Z,82.5
2023-03-20T09:31:59.047Z,83
2023-03-20T09:37:05.614Z,80.5
2023-03-20T09:42:12.185Z,79.5
2023-03-20T09:47:18.753Z,79
2023-03-20T09:52:24.657Z,80.5
2023-03-20T09:57:30.481Z,80.5
2023-03-20T10:02:37.050Z,79
2023-03-20T10:07:43.624Z,78
2023-03-20T10:12:50.196Z,79.5
2023-03-20T10:17:56.749Z,78
2023-03-20T10:23:03.334Z,78
2023-03-20T10:28:09.899Z,76.5
2023-03-20T10:33:16.457Z,77
2023-03-20T10:38:23.047Z,76.5
2023-03-20T10:43:29.627Z,77
2023-03-20T10:48:36.161Z,76
2023-03-20T10:53:42.741Z,75.5
2023-03-20T10:58:49.306Z,74.5
2023-03-20T11:03:55.146Z,73
2023-03-20T11:09:01.725Z,73.5
2023-03-20T11:19:14.851Z,74.5
2023-03-20T11:24:21.426Z,74.5
2023-03-20T11:29:28.059Z,75
2023-03-20T11:34:34.823Z,75
2023-03-20T11:44:47.738Z,75
2023-03-20T11:49:54.255Z,76
2023-03-20T11:55:00.829Z,76.5
2023-03-20T12:00:07.392Z,78
2023-03-20T12:05:13.970Z,78
2023-03-20T12:10:19.841Z,78.5
2023-03-20T12:15:26.392Z,79
2023-03-20T12:20:33.034Z,78
2023-03-20T12:30:46.137Z,78.5
2023-03-20T12:35:52.002Z,79
2023-03-20T12:40:57.843Z,79.5
2023-03-20T12:46:04.462Z,80
2023-03-20T12:51:10.988Z,80
2023-03-20T12:56:17.545Z,79.5
2023-03-20T13:01:24.111Z,77
2023-03-20T13:06:30.688Z,77.5
2023-03-20T13:16:43.819Z,79
2023-03-20T13:21:50.389Z,79
2023-03-20T13:26:56.967Z,80.5
2023-03-20T13:32:03.610Z,82
2023-03-20T13:37:10.102Z,83.5
2023-03-20T13:42:16.650Z,88
2023-03-20T13:47:22.509Z,91.5
2023-03-20T13:52:29.070Z,93.5
2023-03-20T13:57:35.633Z,94
2023-03-20T14:02:42.242Z,94.5
2023-03-20T14:07:48.884Z,95.5
2023-03-20T14:12:55.414Z,95.5
2023-03-20T14:23:08.473Z,94.5
2023-03-20T14:28:15.056Z,92
2023-03-20T14:33:21.648Z,84
2023-03-20T14:38:28.192Z,87.5
2023-03-20T14:43:34.819Z,89.5
2023-03-20T14:48:41.333Z,90
2023-03-20T14:53:47.213Z,90
2023-03-20T14:58:53.813Z,89
2023-03-20T15:03:59.629Z,89.5
2023-03-20T15:09:05.439Z,88
2023-03-20T15:14:12.098Z,90
2023-03-20T15:19:18.601Z,92.5
2023-03-20T15:24:25.146Z,92.5
2023-03-20T15:29:31.740Z,92.5
2023-03-20T15:34:38.296Z,92
2023-03-20T15:39:44.862Z,91.5
2023-03-20T15:44:51.423Z,90.5
2023-03-20T15:49:58.122Z,90.5
2023-03-20T15:55:04.647Z,91.5
2023-03-20T16:00:11.236Z,89.5
2023-03-20T16:05:17.816Z,89.5
2023-03-20T16:10:24.367Z,83
2023-03-20T16:15:30.266Z,80
2023-03-20T16:20:36.705Z,79
2023-03-20T16:25:43.475Z,78
2023-03-20T16:30:49.816Z,77.5
2023-03-20T16:35:56.406Z,77
2023-03-20T16:41:02.994Z,78.5
2023-03-20T16:46:09.550Z,77
2023-03-20T16:51:16.103Z,77.5
2023-03-20T16:56:22.691Z,77
2023-03-20T17:01:29.310Z,77.5
2023-03-20T17:06:35.826Z,78.5
2023-03-20T17:11:42.383Z,78.5
2023-03-20T17:16:48.959Z,78.5
2023-03-20T17:21:54.839Z,79.5
2023-03-20T17:27:01.447Z,80
2023-03-20T17:32:07.926Z,81
2023-03-20T17:37:14.512Z,81.5
2023-03-20T17:42:21.062Z,83.5
2023-03-20T17:47:27.640Z,83.5
2023-03-20T17:52:34.256Z,82.5
2023-03-20T17:57:40.794Z,82
2023-03-20T18:02:47.404Z,81.5
2023-03-20T18:07:54.061Z,81.5
2023-03-20T18:13:00.509Z,81.5
2023-03-20T18:18:07.083Z,82
2023-03-20T18:23:13.852Z,82.5
2023-03-20T18:28:19.483Z,82.5
2023-03-20T18:33:26.084Z,83
2023-03-20T18:38:32.681Z,83.5
2023-03-20T18:43:39.213Z,83.5
2023-03-20T18:48:45.834Z,84
2023-03-20T18:53:52.359Z,84.5
2023-03-20T18:58:58.950Z,85.5
2023-03-20T19:04:05.494Z,87
2023-03-20T19:09:12.102Z,88.5
2023-03-20T19:14:18.640Z,89
2023-03-20T19:19:25.206Z,90
2023-03-20T19:24:31.779Z,90
2023-03-20T19:29:38.369Z,89.5
2023-03-20T19:34:44.212Z,88.5
2023-03-20T19:39:50.762Z,88.5
2023-03-20T19:44:57.340Z,89
2023-03-20T19:50:03.899Z,89
2023-03-20T19:55:10.568Z,89
2023-03-20T20:05:23.643Z,88
2023-03-20T20:10:30.287Z,88
2023-03-20T20:15:36.871Z,88
2023-03-20T20:20:43.493Z,88
2023-03-20T20:25:49.994Z,88
2023-03-20T20:30:56.632Z,89
2023-03-20T20:36:03.049Z,89.5
2023-03-20T20:41:08.878Z,89
2023-03-20T20:46:15.455Z,88
2023-03-20T20:51:22.021Z,87.5
2023-03-20T20:56:28.605Z,87
2023-03-20T21:01:35.167Z,86.5
2023-03-20T21:06:41.731Z,86.5
2023-03-20T21:11:48.306Z,86
2023-03-20T21:16:54.876Z,86
2023-03-20T21:22:01.468Z,86
2023-03-20T21:27:08.048Z,86
2023-03-20T21:32:14.595Z,85.5
2023-03-20T21:37:21.174Z,86
2023-03-20T21:42:27.733Z,86
2023-03-20T21:47:33.587Z,86
2023-03-20T21:52:40.147Z,85.5
2023-03-20T21:57:46.729Z,86
2023-03-20T22:02:53.292Z,86
2023-03-20T22:07:59.900Z,86
2023-03-20T22:13:06.447Z,84.5
2023-03-20T22:18:13.021Z,83.5
2023-03-20T22:23:19.584Z,82
2023-03-20T22:28:26.157Z,81
2023-03-20T22:33:32.715Z,80.5
2023-03-20T22:38:39.285Z,81
2023-03-20T22:43:45.866Z,81
2023-03-20T22:48:52.444Z,81
2023-03-20T22:59:04.855Z,82
2023-03-20T23:04:11.414Z,82
2023-03-20T23:09:18.012Z,82
2023-03-20T23:14:24.560Z,82
2023-03-20T23:19:31.157Z,82.5
2023-03-20T23:24:37.707Z,83
2023-03-20T23:29:44.297Z,83
2023-03-20T23:34:50.860Z,84
2023-03-20T23:39:57.440Z,86
2023-03-20T23:45:04.072Z,87.5
2023-03-20T23:50:10.651Z,89
2023-03-20T23:55:17.155Z,90
